臺中航空站 - ATIS

METAR RCMQ 011600Z 02013KT 9999 FEW010 BKN060 17/15 Q1017 RMK A3005=

站台狀態:Online
最後更新:2022-12-02 00:30:02